Time;durP1;ratioP1;P1;durP2;ratioP2;P2;SDS_P1;SDS_P2;PMS_P1;PMS_P2;Temp;Humidity;BMP_temperature;BMP_pressure;BME280_temperature;BME280_humidity;BME280_pressure;Samples;Min_cycle;Max_cycle;Signal;HPM_P1;HPM_P2
2023/07/18 00:00:04;;;;;;;;;;;;;;;;;;5026674;28;1274;-48
2023/07/18 00:02:30;;;;;;;;;;;;;;;;;;5022597;28;4942;-50
2023/07/18 00:04:56;;;;;;;;;;;;;;;;;;5024195;28;5154;-48
2023/07/18 00:07:21;;;;;;;;;;;;;;;;;;5026784;28;4950;-49
2023/07/18 00:09:47;;;;;;;;;;;;;;;;;;5027561;28;5015;-51
2023/07/18 00:12:12;;;;;;;;;;;;;;;;;;5020968;28;2245;-47
2023/07/18 00:14:38;;;;;;;;;;;;;;;;;;5022721;28;5998;-50
2023/07/18 00:17:03;;;;;;;;;;;;;;;;;;5026459;28;5145;-47
2023/07/18 00:19:29;;;;;;;;;;;;;;;;;;5027371;28;4674;-50
2023/07/18 00:21:55;;;;;;;;;;;;;;;;;;5021363;28;5124;-52
2023/07/18 00:24:21;;;;;;;;;;;;;;;;;;5024469;28;1977;-54
2023/07/18 00:26:46;;;;;;;;;;;;;;;;;;5024821;28;5054;-47
2023/07/18 00:29:11;;;;;;;;;;;;;;;;;;5025079;28;5079;-52
2023/07/18 00:31:36;;;;;;;;;;;;;;;;;;5021562;28;4996;-51
2023/07/18 00:34:03;;;;;;;;;;;;;;;;;;5024230;28;4490;-53
2023/07/18 00:36:29;;;;;;;;;;;;;;;;;;5024301;28;3361;-52
2023/07/18 00:38:54;;;;;;;;;;;;;;;;;;5023195;28;4400;-52
2023/07/18 00:41:19;;;;;;;;;;;;;;;;;;5022457;28;4575;-48
2023/07/18 00:43:45;;;;;;;;;;;;;;;;;;5026366;28;4566;-52
2023/07/18 00:46:10;;;;;;;;;;;;;;;;;;5027012;28;5094;-49
2023/07/18 00:48:35;;;;;;;;;;;;;;;;;;5025335;28;2233;-50
2023/07/18 00:51:01;;;;;;;;;;;;;;;;;;5023113;28;4422;-54
2023/07/18 00:53:26;;;;;;;;;;;;;;;;;;5025922;28;5104;-48
2023/07/18 00:55:52;;;;;;;;;;;;;;;;;;5023800;28;5113;-52
2023/07/18 00:58:17;;;;;;;;;;;;;;;;;;5017416;28;4919;-50
2023/07/18 01:00:43;;;;;;;;;;;;;;;;;;5021268;28;5058;-51
2023/07/18 01:03:08;;;;;;;;;;;;;;;;;;5027701;28;4802;-48
2023/07/18 01:05:33;;;;;;;;;;;;;;;;;;5025135;28;4628;-50
2023/07/18 01:08:00;;;;;;;;;;;;;;;;;;5026688;28;5067;-47
2023/07/18 01:10:26;;;;;;;;;;;;;;;;;;5024163;28;5130;-49
2023/07/18 01:12:55;;;;;;;;;;;;;;;;;;5023129;28;5031;-51
2023/07/18 01:15:20;;;;;;;;;;;;;;;;;;5026976;28;3150;-53
2023/07/18 01:17:46;;;;;;;;;;;;;;;;;;5023025;28;4542;-54
2023/07/18 01:20:18;;;;;;;;;;;;;;;;;;5020894;28;5180;-50
2023/07/18 01:22:50;;;;;;;;;;;;;;;;;;5030921;28;5036;-49
2023/07/18 01:25:19;;;;;;;;;;;;;;;;;;5030931;28;4921;-49
2023/07/18 01:27:44;;;;;;;;;;;;;;;;;;5023287;28;4521;-49
2023/07/18 01:30:10;;;;;;;;;;;;;;;;;;5023378;28;3269;-47
2023/07/18 01:32:35;;;;;;;;;;;;;;;;;;5030398;28;4473;-49
2023/07/18 01:35:02;;;;;;;;;;;;;;;;;;5016818;28;4720;-49
2023/07/18 01:37:27;;;;;;;;;;;;;;;;;;5006852;28;4765;-56
2023/07/18 01:39:52;;;;;;;;;;;;;;;;;;5011313;28;5651;-48
2023/07/18 01:42:17;;;;;;;;;;;;;;;;;;5008346;28;3276;-52
2023/07/18 01:44:43;;;;;;;;;;;;;;;;;;5022136;28;4404;-48
2023/07/18 01:47:09;;;;;;;;;;;;;;;;;;5028397;28;5011;-49
2023/07/18 01:49:35;;;;;;;;;;;;;;;;;;5026907;28;5207;-50
2023/07/18 01:52:00;;;;;;;;;;;;;;;;;;5029686;28;4969;-48
2023/07/18 01:54:27;;;;;;;;;;;;;;;;;;5038822;28;1178;-49
2023/07/18 01:56:52;;;;;;;;;;;;;;;;;;5026768;28;4624;-50
2023/07/18 01:59:17;;;;;;;;;;;;;;;;;;5027219;28;4505;-52
2023/07/18 02:01:42;;;;;;;;;;;;;;;;;;5029570;28;4461;-50
2023/07/18 02:04:08;;;;;;;;;;;;;;;;;;5026484;28;5146;-46
2023/07/18 02:06:33;;;;;;;;;;;;;;;;;;5028766;28;3298;-50
2023/07/18 02:08:58;;;;;;;;;;;;;;;;;;5020339;28;5110;-49
2023/07/18 02:11:24;;;;;;;;;;;;;;;;;;5029167;28;5029;-49
2023/07/18 02:13:49;;;;;;;;;;;;;;;;;;5029825;28;4602;-49
2023/07/18 02:16:14;;;;;;;;;;;;;;;;;;5027739;28;5052;-53
2023/07/18 02:18:39;;;;;;;;;;;;;;;;;;5024380;28;5098;-48
2023/07/18 02:21:05;;;;;;;;;;;;;;;;;;5024083;28;3440;-49
2023/07/18 02:23:30;;;;;;;;;;;;;;;;;;5029891;28;5005;-48
2023/07/18 02:25:55;;;;;;;;;;;;;;;;;;5028604;28;5051;-50
2023/07/18 02:28:20;;;;;;;;;;;;;;;;;;5028541;28;5160;-47
2023/07/18 02:30:46;;;;;;;;;;;;;;;;;;5019513;28;4764;-48
2023/07/18 02:33:11;;;;;;;;;;;;;;;;;;5028471;28;3289;-48
2023/07/18 02:35:36;;;;;;;;;;;;;;;;;;5028538;28;5209;-50
2023/07/18 02:38:01;;;;;;;;;;;;;;;;;;5024745;28;5251;-50
2023/07/18 02:40:27;;;;;;;;;;;;;;;;;;5022620;28;5117;-50
2023/07/18 02:42:52;;;;;;;;;;;;;;;;;;5025215;28;4752;-51
2023/07/18 02:45:17;;;;;;;;;;;;;;;;;;5026245;28;2350;-53
2023/07/18 02:47:42;;;;;;;;;;;;;;;;;;5023954;28;4531;-47
2023/07/18 02:50:08;;;;;;;;;;;;;;;;;;5029378;28;5116;-50
2023/07/18 02:52:33;;;;;;;;;;;;;;;;;;5029047;28;4985;-50
2023/07/18 02:54:58;;;;;;;;;;;;;;;;;;5027020;28;5103;-50
2023/07/18 02:57:24;;;;;;;;;;;;;;;;;;5022344;28;3328;-48
2023/07/18 02:59:49;;;;;;;;;;;;;;;;;;5027756;28;5632;-49
2023/07/18 03:02:15;;;;;;;;;;;;;;;;;;5028898;28;5086;-50
2023/07/18 03:04:41;;;;;;;;;;;;;;;;;;5027972;28;5195;-50
2023/07/18 03:07:07;;;;;;;;;;;;;;;;;;5026743;28;5185;-52
2023/07/18 03:09:34;;;;;;;;;;;;;;;;;;5029549;28;1397;-49
2023/07/18 03:12:00;;;;;;;;;;;;;;;;;;5028356;28;4910;-49
2023/07/18 03:14:25;;;;;;;;;;;;;;;;;;5023649;28;5181;-50
2023/07/18 03:16:50;;;;;;;;;;;;;;;;;;5026676;28;5137;-51
2023/07/18 03:19:15;;;;;;;;;;;;;;;;;;5026905;28;5134;-51
2023/07/18 03:21:41;;;;;;;;;;;;;;;;;;5025526;28;5023;-50
2023/07/18 03:24:08;;;;;;;;;;;;;;;;;;5023594;28;1967;-52
2023/07/18 03:26:37;;;;;;;;;;;;;;;;;;5024671;28;4908;-53
2023/07/18 03:29:04;;;;;;;;;;;;;;;;;;5028328;28;5648;-52
2023/07/18 03:31:29;;;;;;;;;;;;;;;;;;5019070;28;4590;-52
2023/07/18 03:33:54;;;;;;;;;;;;;;;;;;5024117;28;4529;-54
2023/07/18 03:36:20;;;;;;;;;;;;;;;;;;5023194;28;3304;-53
2023/07/18 03:38:45;;;;;;;;;;;;;;;;;;5022392;28;4508;-51
2023/07/18 03:41:10;;;;;;;;;;;;;;;;;;5028763;28;5023;-50
2023/07/18 03:43:36;;;;;;;;;;;;;;;;;;5022785;28;4690;-49
2023/07/18 03:46:01;;;;;;;;;;;;;;;;;;5025943;28;5339;-51
2023/07/18 03:48:26;;;;;;;;;;;;;;;;;;5022886;28;3280;-51
2023/07/18 03:50:52;;;;;;;;;;;;;;;;;;5027299;28;4990;-56
2023/07/18 03:53:17;;;;;;;;;;;;;;;;;;5028229;28;5021;-53
2023/07/18 03:55:43;;;;;;;;;;;;;;;;;;5024545;28;5136;-51
2023/07/18 03:58:08;;;;;;;;;;;;;;;;;;5026997;28;5080;-53
2023/07/18 04:00:33;;;;;;;;;;;;;;;;;;5022550;28;3393;-53
2023/07/18 04:02:59;;;;;;;;;;;;;;;;;;5025866;28;5027;-55
2023/07/18 04:05:24;;;;;;;;;;;;;;;;;;5024242;28;5034;-54
2023/07/18 04:07:51;;;;;;;;;;;;;;;;;;5018602;28;5004;-54
2023/07/18 04:10:16;;;;;;;;;;;;;;;;;;5025391;28;5086;-51
2023/07/18 04:12:42;;;;;;;;;;;;;;;;;;5023267;28;4576;-51
2023/07/18 04:15:07;;;;;;;;;;;;;;;;;;5027175;28;3312;-53
2023/07/18 04:17:32;;;;;;;;;;;;;;;;;;5024952;28;4509;-51
2023/07/18 04:20:00;;;;;;;;;;;;;;;;;;5025375;28;4906;-52
2023/07/18 04:22:26;;;;;;;;;;;;;;;;;;5020655;28;5080;-52
2023/07/18 04:24:55;;;;;;;;;;;;;;;;;;5023351;28;5096;-56
2023/07/18 04:27:20;;;;;;;;;;;;;;;;;;5021102;28;3746;-52
2023/07/18 04:29:45;;;;;;;;;;;;;;;;;;5026040;28;5665;-48
2023/07/18 04:32:11;;;;;;;;;;;;;;;;;;5018303;28;4674;-51
2023/07/18 04:34:36;;;;;;;;;;;;;;;;;;5024040;28;5045;-51
2023/07/18 04:37:01;;;;;;;;;;;;;;;;;;5027240;28;4441;-48
2023/07/18 04:39:27;;;;;;;;;;;;;;;;;;5024597;28;1163;-52
2023/07/18 04:41:52;;;;;;;;;;;;;;;;;;5023779;28;4959;-60
2023/07/18 04:44:18;;;;;;;;;;;;;;;;;;5020883;28;5433;-51
2023/07/18 04:46:43;;;;;;;;;;;;;;;;;;5022936;28;5063;-53
2023/07/18 04:49:08;;;;;;;;;;;;;;;;;;5020362;28;5195;-55
2023/07/18 04:51:33;;;;;;;;;;;;;;;;;;5020245;28;3689;-51
2023/07/18 04:53:59;;;;;;;;;;;;;;;;;;5021817;28;4655;-50
2023/07/18 04:56:24;;;;;;;;;;;;;;;;;;5020185;28;4498;-51
2023/07/18 04:58:49;;;;;;;;;;;;;;;;;;5028180;28;4516;-53
2023/07/18 05:01:14;;;;;;;;;;;;;;;;;;5025255;28;5135;-52
2023/07/18 05:03:40;;;;;;;;;;;;;;;;;;5029664;28;5118;-52
2023/07/18 05:06:05;;;;;;;;;;;;;;;;;;5029114;28;3298;-54
2023/07/18 05:08:30;;;;;;;;;;;;;;;;;;5029931;28;4972;-55
2023/07/18 05:10:59;;;;;;;;;;;;;;;;;;5027656;28;5116;-51
2023/07/18 05:13:24;;;;;;;;;;;;;;;;;;5029837;28;4558;-53
2023/07/18 05:15:49;;;;;;;;;;;;;;;;;;5021121;28;5126;-52
2023/07/18 05:18:15;;;;;;;;;;;;;;;;;;5027499;28;3243;-52
2023/07/18 05:20:40;;;;;;;;;;;;;;;;;;5028139;28;4908;-50
2023/07/18 05:23:05;;;;;;;;;;;;;;;;;;5025728;28;5093;-52
2023/07/18 05:25:31;;;;;;;;;;;;;;;;;;5028109;28;4954;-51
2023/07/18 05:27:56;;;;;;;;;;;;;;;;;;5029419;28;5428;-52
2023/07/18 05:30:21;;;;;;;;;;;;;;;;;;5028545;28;3417;-53
2023/07/18 05:32:46;;;;;;;;;;;;;;;;;;5025901;28;5141;-52
2023/07/18 05:35:13;;;;;;;;;;;;;;;;;;5024528;28;4988;-53
2023/07/18 05:37:39;;;;;;;;;;;;;;;;;;5026148;28;4531;-52
2023/07/18 05:40:05;;;;;;;;;;;;;;;;;;5029489;28;4940;-52
2023/07/18 05:42:31;;;;;;;;;;;;;;;;;;5028707;28;3333;-49
2023/07/18 05:44:56;;;;;;;;;;;;;;;;;;5026899;28;4541;-55
2023/07/18 05:47:21;;;;;;;;;;;;;;;;;;5026522;28;4944;-53
2023/07/18 05:49:46;;;;;;;;;;;;;;;;;;5025786;28;4524;-52
2023/07/18 05:52:11;;;;;;;;;;;;;;;;;;5028079;28;5194;-51
2023/07/18 05:54:37;;;;;;;;;;;;;;;;;;5026376;28;5201;-52
2023/07/18 05:57:02;;;;;;;;;;;;;;;;;;5028096;28;1068;-53
2023/07/18 05:59:29;;;;;;;;;;;;;;;;;;5029845;28;5108;-51
2023/07/18 06:01:54;;;;;;;;;;;;;;;;;;5025154;28;5084;-52
2023/07/18 06:04:20;;;;;;;;;;;;;;;;;;5028645;28;5206;-48
2023/07/18 06:06:45;;;;;;;;;;;;;;;;;;5029685;28;5009;-49
2023/07/18 06:09:11;;;;;;;;;;;;;;;;;;5031961;28;1199;-50
2023/07/18 06:11:36;;;;;;;;;;;;;;;;;;5030012;28;4961;-48
2023/07/18 06:14:02;;;;;;;;;;;;;;;;;;5030125;28;5154;-48
2023/07/18 06:16:27;;;;;;;;;;;;;;;;;;5029437;28;4673;-51
2023/07/18 06:18:53;;;;;;;;;;;;;;;;;;5029560;28;5117;-52
2023/07/18 06:21:18;;;;;;;;;;;;;;;;;;5028641;28;1207;-52
2023/07/18 06:23:44;;;;;;;;;;;;;;;;;;5029573;28;4478;-53
2023/07/18 06:26:09;;;;;;;;;;;;;;;;;;5029546;28;5149;-48
2023/07/18 06:28:34;;;;;;;;;;;;;;;;;;5029622;28;5078;-53
2023/07/18 06:31:00;;;;;;;;;;;;;;;;;;5026024;28;4461;-50
2023/07/18 06:33:25;;;;;;;;;;;;;;;;;;5029982;28;1286;-49
2023/07/18 06:35:54;;;;;;;;;;;;;;;;;;5029243;28;4986;-50
2023/07/18 06:38:19;;;;;;;;;;;;;;;;;;5029313;28;5053;-51
2023/07/18 06:40:45;;;;;;;;;;;;;;;;;;5029126;28;4545;-53
2023/07/18 06:43:11;;;;;;;;;;;;;;;;;;5028276;28;5116;-50
2023/07/18 06:45:36;;;;;;;;;;;;;;;;;;5028476;28;1971;-49
2023/07/18 06:48:02;;;;;;;;;;;;;;;;;;5028719;28;4635;-55
2023/07/18 06:50:27;;;;;;;;;;;;;;;;;;5021050;28;4458;-50
2023/07/18 06:52:53;;;;;;;;;;;;;;;;;;5029023;28;5097;-48
2023/07/18 06:55:18;;;;;;;;;;;;;;;;;;5025830;28;5070;-49
2023/07/18 06:57:43;;;;;;;;;;;;;;;;;;5028215;28;5168;-54
2023/07/18 07:00:11;;;;;;;;;;;;;;;;;;5019338;28;3354;-51
2023/07/18 07:02:36;;;;;;;;;;;;;;;;;;5025550;28;5105;-52
2023/07/18 07:05:02;;;;;;;;;;;;;;;;;;5020377;28;5052;-52
2023/07/18 07:07:27;;;;;;;;;;;;;;;;;;5026848;28;4501;-49
2023/07/18 07:09:52;;;;;;;;;;;;;;;;;;5021276;28;5100;-54
2023/07/18 07:12:17;;;;;;;;;;;;;;;;;;5028199;28;3191;-51
2023/07/18 07:14:43;;;;;;;;;;;;;;;;;;5024751;28;5201;-52
2023/07/18 07:17:08;;;;;;;;;;;;;;;;;;5025439;28;4705;-53
2023/07/18 07:19:33;;;;;;;;;;;;;;;;;;5020343;28;5204;-50
2023/07/18 07:21:58;;;;;;;;;;;;;;;;;;5021120;28;5085;-52
2023/07/18 07:24:24;;;;;;;;;;;;;;;;;;5024690;28;3406;-51
2023/07/18 07:26:50;;;;;;;;;;;;;;;;;;5024575;28;5060;-50
2023/07/18 07:29:15;;;;;;;;;;;;;;;;;;5025282;28;4525;-49
2023/07/18 07:31:41;;;;;;;;;;;;;;;;;;5027760;28;5084;-53
2023/07/18 07:34:06;;;;;;;;;;;;;;;;;;5028243;28;4569;-51
2023/07/18 07:36:33;;;;;;;;;;;;;;;;;;5028931;28;1096;-51
2023/07/18 07:38:58;;;;;;;;;;;;;;;;;;5028487;28;4777;-50
2023/07/18 07:41:24;;;;;;;;;;;;;;;;;;5028580;28;5172;-54
2023/07/18 07:43:50;;;;;;;;;;;;;;;;;;5028339;28;4681;-50
2023/07/18 07:46:15;;;;;;;;;;;;;;;;;;5027697;28;4551;-51
2023/07/18 07:48:40;;;;;;;;;;;;;;;;;;5027645;28;5003;-50
2023/07/18 07:51:06;;;;;;;;;;;;;;;;;;5028559;28;1278;-49
2023/07/18 07:53:31;;;;;;;;;;;;;;;;;;5023434;28;5079;-49
2023/07/18 07:55:56;;;;;;;;;;;;;;;;;;5022141;28;4997;-49
2023/07/18 07:58:21;;;;;;;;;;;;;;;;;;5028288;28;4727;-51
2023/07/18 08:00:47;;;;;;;;;;;;;;;;;;5027755;28;4537;-53
2023/07/18 08:03:12;;;;;;;;;;;;;;;;;;5020916;28;4846;-48
2023/07/18 08:05:39;;;;;;;;;;;;;;;;;;5023826;28;5129;-49
2023/07/18 08:08:04;;;;;;;;;;;;;;;;;;5011204;28;5205;-70
2023/07/18 08:10:30;;;;;;;;;;;;;;;;;;5011405;28;5208;-70
2023/07/18 08:12:55;;;;;;;;;;;;;;;;;;5027459;28;5169;-69
2023/07/18 08:15:21;;;;;;;;;;;;;;;;;;5026944;28;3551;-69
2023/07/18 08:17:46;;;;;;;;;;;;;;;;;;5025195;28;4560;-68
2023/07/18 08:20:12;;;;;;;;;;;;;;;;;;5025410;28;4429;-69
2023/07/18 08:22:38;;;;;;;;;;;;;;;;;;5025362;28;5097;-69
2023/07/18 08:25:03;;;;;;;;;;;;;;;;;;5025982;28;5327;-69
2023/07/18 08:27:29;;;;;;;;;;;;;;;;;;5027732;28;1297;-67
2023/07/18 08:29:55;;;;;;;;;;;;;;;;;;5026943;28;4940;-69
2023/07/18 08:32:20;;;;;;;;;;;;;;;;;;5018762;28;5210;-71
2023/07/18 08:34:45;;;;;;;;;;;;;;;;;;5026520;28;5175;-68
2023/07/18 08:37:10;;;;;;;;;;;;;;;;;;5025527;28;4584;-70
2023/07/18 08:39:37;;;;;;;;;;;;;;;;;;5025175;28;3430;-71
2023/07/18 08:42:03;;;;;;;;;;;;;;;;;;5022669;28;4882;-69
2023/07/18 08:44:28;;;;;;;;;;;;;;;;;;5025262;28;4486;-70
2023/07/18 08:46:54;;;;;;;;;;;;;;;;;;5020516;28;5059;-71
2023/07/18 08:49:19;;;;;;;;;;;;;;;;;;5022125;28;4498;-69
2023/07/18 08:51:45;;;;;;;;;;;;;;;;;;5025814;28;4990;-73
2023/07/18 08:54:10;;;;;;;;;;;;;;;;;;5028257;28;1140;-68
2023/07/18 08:56:36;;;;;;;;;;;;;;;;;;5023437;28;4498;-70
2023/07/18 08:59:02;;;;;;;;;;;;;;;;;;5016728;28;4447;-70
2023/07/18 09:01:27;;;;;;;;;;;;;;;;;;5024971;28;4618;-68
2023/07/18 09:03:53;;;;;;;;;;;;;;;;;;5026948;28;5154;-69
2023/07/18 09:06:18;;;;;;;;;;;;;;;;;;5024992;28;3173;-73
2023/07/18 09:08:44;;;;;;;;;;;;;;;;;;5002346;28;4430;-72
2023/07/18 09:11:12;;;;;;;;;;;;;;;;;;5001675;28;4954;-73
2023/07/18 09:13:38;;;;;;;;;;;;;;;;;;5006423;28;4663;-66
2023/07/18 09:16:12;;;;;;;;;;;;;;;;;;5009877;28;5152;-75
2023/07/18 09:18:38;;;;;;;;;;;;;;;;;;5020041;28;4615;-72
2023/07/18 09:21:08;;;;;;;;;;;;;;;;;;5027131;28;1352;-74
2023/07/18 09:23:38;;;;;;;;;;;;;;;;;;5027366;28;4693;-71
2023/07/18 09:26:07;;;;;;;;;;;;;;;;;;5022182;28;4918;-70
2023/07/18 09:28:33;;;;;;;;;;;;;;;;;;5025019;28;4461;-73
2023/07/18 09:30:58;;;;;;;;;;;;;;;;;;5025514;28;4466;-70
2023/07/18 09:33:24;;;;;;;;;;;;;;;;;;5023592;28;1182;-71
2023/07/18 09:35:49;;;;;;;;;;;;;;;;;;5022293;28;5122;-70
2023/07/18 09:38:14;;;;;;;;;;;;;;;;;;5028305;28;4745;-73
2023/07/18 09:40:39;;;;;;;;;;;;;;;;;;5023450;28;4939;-71
2023/07/18 09:43:05;;;;;;;;;;;;;;;;;;5027592;28;4655;-71
2023/07/18 09:45:30;;;;;;;;;;;;;;;;;;5029514;28;1938;-70
2023/07/18 09:47:55;;;;;;;;;;;;;;;;;;5028278;28;4979;-70
2023/07/18 09:50:21;;;;;;;;;;;;;;;;;;5028319;28;4942;-69
2023/07/18 09:52:46;;;;;;;;;;;;;;;;;;5028754;28;4982;-69
2023/07/18 09:55:12;;;;;;;;;;;;;;;;;;5029093;28;4465;-75
2023/07/18 09:57:39;;;;;;;;;;;;;;;;;;5022101;28;5058;-69
2023/07/18 10:00:10;;;;;;;;;;;;;;;;;;5029303;28;1393;-70
2023/07/18 10:02:35;;;;;;;;;;;;;;;;;;5029537;28;5017;-71
2023/07/18 10:05:02;;;;;;;;;;;;;;;;;;5028263;28;5076;-70
2023/07/18 10:07:29;;;;;;;;;;;;;;;;;;5028563;28;4694;-70
2023/07/18 10:09:54;;;;;;;;;;;;;;;;;;5023345;28;5090;-70
2023/07/18 10:12:19;;;;;;;;;;;;;;;;;;5021175;28;3317;-70
2023/07/18 10:14:49;;;;;;;;;;;;;;;;;;5026849;28;5370;-70
2023/07/18 10:17:32;;;;;;;;;;;;;;;;;;5023729;28;4536;-70
2023/07/18 10:19:58;;;;;;;;;;;;;;;;;;5027018;28;5204;-70
2023/07/18 10:22:26;;;;;;;;;;;;;;;;;;5030244;28;5065;-70
2023/07/18 10:24:51;;;;;;;;;;;;;;;;;;5025528;28;5158;-69
2023/07/18 10:27:17;;;;;;;;;;;;;;;;;;5027612;28;2118;-63
2023/07/18 10:29:43;;;;;;;;;;;;;;;;;;5022400;28;4756;-66
2023/07/18 10:32:11;;;;;;;;;;;;;;;;;;5007378;28;5139;-67
2023/07/18 10:34:39;;;;;;;;;;;;;;;;;;5029087;28;4987;-64
2023/07/18 10:37:07;;;;;;;;;;;;;;;;;;5025775;28;5164;-65
2023/07/18 10:39:39;;;;;;;;;;;;;;;;;;5028110;28;1062;-64
2023/07/18 10:42:20;;;;;;;;;;;;;;;;;;5026621;28;5234;-65
2023/07/18 10:44:46;;;;;;;;;;;;;;;;;;5027935;28;5073;-66
2023/07/18 10:47:14;;;;;;;;;;;;;;;;;;5027012;28;5099;-67
2023/07/18 10:49:40;;;;;;;;;;;;;;;;;;5025884;28;4510;-63
2023/07/18 10:52:06;;;;;;;;;;;;;;;;;;5028668;28;4829;-71
2023/07/18 10:54:31;;;;;;;;;;;;;;;;;;5024189;28;1151;-67
2023/07/18 10:56:56;;;;;;;;;;;;;;;;;;5019750;28;4918;-64
2023/07/18 10:59:22;;;;;;;;;;;;;;;;;;5005758;28;5092;-72
2023/07/18 11:01:47;;;;;;;;;;;;;;;;;;5003033;28;4674;-69
2023/07/18 11:04:12;;;;;;;;;;;;;;;;;;5003584;28;5150;-70
2023/07/18 11:06:41;;;;;;;;;;;;;;;;;;5003577;28;4708;-70
2023/07/18 11:09:15;;;;;;;;;;;;;;;;;;5026576;28;3230;-70
2023/07/18 11:11:41;;;;;;;;;;;;;;;;;;5024378;28;5045;-69
2023/07/18 11:14:06;;;;;;;;;;;;;;;;;;5022249;28;4992;-69
2023/07/18 11:16:31;;;;;;;;;;;;;;;;;;5026615;28;5073;-68
2023/07/18 11:18:59;;;;;;;;;;;;;;;;;;5026414;28;5057;-69
2023/07/18 11:21:25;;;;;;;;;;;;;;;;;;5026527;28;1096;-70
2023/07/18 11:23:50;;;;;;;;;;;;;;;;;;5020422;28;4483;-68
2023/07/18 11:26:16;;;;;;;;;;;;;;;;;;5021633;28;5104;-69
2023/07/18 11:28:42;;;;;;;;;;;;;;;;;;5018947;28;4929;-70
2023/07/18 11:31:19;;;;;;;;;;;;;;;;;;5027367;28;5071;-69
2023/07/18 11:33:49;;;;;;;;;;;;;;;;;;5023821;28;5121;-70
2023/07/18 11:36:14;;;;;;;;;;;;;;;;;;5027558;28;1276;-69
2023/07/18 11:38:40;;;;;;;;;;;;;;;;;;5027128;28;4609;-69
2023/07/18 11:41:05;;;;;;;;;;;;;;;;;;5025541;28;5136;-68
2023/07/18 11:43:30;;;;;;;;;;;;;;;;;;5025575;28;5001;-69
2023/07/18 11:45:56;;;;;;;;;;;;;;;;;;5026634;28;5002;-69
2023/07/18 11:48:21;;;;;;;;;;;;;;;;;;5026268;28;1346;-69
2023/07/18 11:50:47;;;;;;;;;;;;;;;;;;5024745;28;5054;-68
2023/07/18 11:53:13;;;;;;;;;;;;;;;;;;5026534;28;5034;-69
2023/07/18 11:55:38;;;;;;;;;;;;;;;;;;5019940;28;5154;-52
2023/07/18 11:58:07;;;;;;;;;;;;;;;;;;5026101;28;5023;-56
2023/07/18 12:00:34;;;;;;;;;;;;;;;;;;5026577;28;2480;-49
2023/07/18 12:02:59;;;;;;;;;;;;;;;;;;5018101;28;4844;-53
2023/07/18 12:05:25;;;;;;;;;;;;;;;;;;5023254;28;5173;-53
2023/07/18 12:07:50;;;;;;;;;;;;;;;;;;5020550;28;5288;-46
2023/07/18 12:10:15;;;;;;;;;;;;;;;;;;5025480;28;5113;-46
2023/07/18 12:12:41;;;;;;;;;;;;;;;;;;5025066;28;5362;-49
2023/07/18 12:15:07;;;;;;;;;;;;;;;;;;5026598;28;3239;-51
2023/07/18 12:17:32;;;;;;;;;;;;;;;;;;5024763;28;4951;-54
2023/07/18 12:19:57;;;;;;;;;;;;;;;;;;5024181;28;5561;-52
2023/07/18 12:22:22;;;;;;;;;;;;;;;;;;5026654;28;5027;-52
2023/07/18 12:24:47;;;;;;;;;;;;;;;;;;5024406;28;4621;-48
2023/07/18 12:27:14;;;;;;;;;;;;;;;;;;5023733;28;1166;-48
2023/07/18 12:29:39;;;;;;;;;;;;;;;;;;5020475;28;5121;-51
2023/07/18 12:32:04;;;;;;;;;;;;;;;;;;5023102;28;5136;-51
2023/07/18 12:34:30;;;;;;;;;;;;;;;;;;5021089;28;5048;-49
2023/07/18 12:36:55;;;;;;;;;;;;;;;;;;5025815;28;4540;-50
2023/07/18 12:39:20;;;;;;;;;;;;;;;;;;5028357;28;1090;-54
2023/07/18 12:41:46;;;;;;;;;;;;;;;;;;5021364;28;4666;-53
2023/07/18 12:44:13;;;;;;;;;;;;;;;;;;5018690;28;5026;-49
2023/07/18 12:46:39;;;;;;;;;;;;;;;;;;5024249;28;5098;-53
2023/07/18 12:49:04;;;;;;;;;;;;;;;;;;5021773;28;5295;-51
2023/07/18 12:51:29;;;;;;;;;;;;;;;;;;5021056;28;3249;-53
2023/07/18 12:53:54;;;;;;;;;;;;;;;;;;5023171;28;4839;-49
2023/07/18 12:56:20;;;;;;;;;;;;;;;;;;5017065;28;5075;-51
2023/07/18 12:58:46;;;;;;;;;;;;;;;;;;5017105;28;5114;-52
2023/07/18 13:01:11;;;;;;;;;;;;;;;;;;5021338;28;5028;-51
2023/07/18 13:03:36;;;;;;;;;;;;;;;;;;5020287;28;4930;-49
2023/07/18 13:06:05;;;;;;;;;;;;;;;;;;5025352;28;4416;-49
2023/07/18 13:08:30;;;;;;;;;;;;;;;;;;5015807;28;4667;-50
2023/07/18 13:10:56;;;;;;;;;;;;;;;;;;5019995;28;5104;-53
2023/07/18 13:13:21;;;;;;;;;;;;;;;;;;5017727;28;4509;-54
2023/07/18 13:15:47;;;;;;;;;;;;;;;;;;5019113;28;5770;-53
2023/07/18 13:18:12;;;;;;;;;;;;;;;;;;5019652;28;3755;-51
2023/07/18 13:20:37;;;;;;;;;;;;;;;;;;5024555;28;5042;-51
2023/07/18 13:23:02;;;;;;;;;;;;;;;;;;5022717;28;4641;-54
2023/07/18 13:25:28;;;;;;;;;;;;;;;;;;5027482;28;5068;-53
2023/07/18 13:27:53;;;;;;;;;;;;;;;;;;5026997;28;4513;-52
2023/07/18 13:30:18;;;;;;;;;;;;;;;;;;5024016;28;3304;-49
2023/07/18 13:32:43;;;;;;;;;;;;;;;;;;5027046;28;4997;-52
2023/07/18 13:35:09;;;;;;;;;;;;;;;;;;5020600;28;4996;-49
2023/07/18 13:37:34;;;;;;;;;;;;;;;;;;5027416;28;5187;-49
2023/07/18 13:39:59;;;;;;;;;;;;;;;;;;5028137;28;4525;-50
2023/07/18 13:42:25;;;;;;;;;;;;;;;;;;5027962;28;3482;-50
2023/07/18 13:44:50;;;;;;;;;;;;;;;;;;5023153;28;5094;-47
2023/07/18 13:47:16;;;;;;;;;;;;;;;;;;5026508;28;5157;-50
2023/07/18 13:49:41;;;;;;;;;;;;;;;;;;5026006;28;5219;-50
2023/07/18 13:52:07;;;;;;;;;;;;;;;;;;5019557;28;5070;-56
2023/07/18 13:54:32;;;;;;;;;;;;;;;;;;5027202;28;3243;-54
2023/07/18 13:56:57;;;;;;;;;;;;;;;;;;5021891;28;4934;-55
2023/07/18 13:59:22;;;;;;;;;;;;;;;;;;5027171;28;4436;-54
2023/07/18 14:01:48;;;;;;;;;;;;;;;;;;5024735;28;5140;-47
2023/07/18 14:04:13;;;;;;;;;;;;;;;;;;5027540;28;5327;-56
2023/07/18 14:06:38;;;;;;;;;;;;;;;;;;5026347;28;4547;-48
2023/07/18 14:09:03;;;;;;;;;;;;;;;;;;5027882;28;3331;-54
2023/07/18 14:11:28;;;;;;;;;;;;;;;;;;5025297;28;5161;-49
2023/07/18 14:13:54;;;;;;;;;;;;;;;;;;5026177;28;4708;-50
2023/07/18 14:16:19;;;;;;;;;;;;;;;;;;5020623;28;4527;-55
2023/07/18 14:18:44;;;;;;;;;;;;;;;;;;5025082;28;4992;-56
2023/07/18 14:21:09;;;;;;;;;;;;;;;;;;5026448;28;3171;-50
2023/07/18 14:23:35;;;;;;;;;;;;;;;;;;5025478;28;5134;-49
2023/07/18 14:26:00;;;;;;;;;;;;;;;;;;5022806;28;5027;-47
2023/07/18 14:28:25;;;;;;;;;;;;;;;;;;5027913;28;4491;-49
2023/07/18 14:30:50;;;;;;;;;;;;;;;;;;5025101;28;4553;-48
2023/07/18 14:33:17;;;;;;;;;;;;;;;;;;5028704;28;3184;-48
2023/07/18 14:35:42;;;;;;;;;;;;;;;;;;5024646;28;4376;-51
2023/07/18 14:38:08;;;;;;;;;;;;;;;;;;5025450;28;5047;-50
2023/07/18 14:40:33;;;;;;;;;;;;;;;;;;5024065;28;5080;-49
2023/07/18 14:42:59;;;;;;;;;;;;;;;;;;5019581;28;4695;-50
2023/07/18 14:45:24;;;;;;;;;;;;;;;;;;5028929;28;3275;-51
2023/07/18 14:47:49;;;;;;;;;;;;;;;;;;5023235;28;5158;-53
2023/07/18 14:50:15;;;;;;;;;;;;;;;;;;5026697;28;5095;-53
2023/07/18 14:52:40;;;;;;;;;;;;;;;;;;5026602;28;5784;-53
2023/07/18 14:55:06;;;;;;;;;;;;;;;;;;5027815;28;4422;-52
2023/07/18 14:57:31;;;;;;;;;;;;;;;;;;5026681;28;1187;-53
2023/07/18 14:59:56;;;;;;;;;;;;;;;;;;5023121;28;5039;-49
2023/07/18 15:02:21;;;;;;;;;;;;;;;;;;5026433;28;5000;-53
2023/07/18 15:04:47;;;;;;;;;;;;;;;;;;5024540;28;5271;-52
2023/07/18 15:07:12;;;;;;;;;;;;;;;;;;5025044;28;5056;-46
2023/07/18 15:09:37;;;;;;;;;;;;;;;;;;5022458;28;5108;-47
2023/07/18 15:12:03;;;;;;;;;;;;;;;;;;5024001;28;3234;-49
2023/07/18 15:14:28;;;;;;;;;;;;;;;;;;5027596;28;4479;-48
2023/07/18 15:16:53;;;;;;;;;;;;;;;;;;5023453;28;5231;-49
2023/07/18 15:19:19;;;;;;;;;;;;;;;;;;5024177;28;5136;-52
2023/07/18 15:21:44;;;;;;;;;;;;;;;;;;5025420;28;4514;-54
2023/07/18 15:24:09;;;;;;;;;;;;;;;;;;5027709;28;3167;-58
2023/07/18 15:26:36;;;;;;;;;;;;;;;;;;5023736;28;4509;-55
2023/07/18 15:29:01;;;;;;;;;;;;;;;;;;5026989;28;5030;-54
2023/07/18 15:31:27;;;;;;;;;;;;;;;;;;5028102;28;4474;-53
2023/07/18 15:33:52;;;;;;;;;;;;;;;;;;5027414;28;4993;-55
2023/07/18 15:36:17;;;;;;;;;;;;;;;;;;5027650;28;1089;-62
2023/07/18 15:38:43;;;;;;;;;;;;;;;;;;5024753;28;4820;-62
2023/07/18 15:41:08;;;;;;;;;;;;;;;;;;5018650;28;4555;-62
2023/07/18 15:43:33;;;;;;;;;;;;;;;;;;5027509;28;5179;-61
2023/07/18 15:45:59;;;;;;;;;;;;;;;;;;5021321;28;5140;-62
2023/07/18 15:48:26;;;;;;;;;;;;;;;;;;5026321;28;1563;-62
2023/07/18 15:50:51;;;;;;;;;;;;;;;;;;5027820;28;4984;-62
2023/07/18 15:53:17;;;;;;;;;;;;;;;;;;5026883;28;4667;-62
2023/07/18 15:55:42;;;;;;;;;;;;;;;;;;5024412;28;5143;-61
2023/07/18 15:58:07;;;;;;;;;;;;;;;;;;5023417;28;4931;-61
2023/07/18 16:00:33;;;;;;;;;;;;;;;;;;5025195;28;1408;-61
2023/07/18 16:02:58;;;;;;;;;;;;;;;;;;5022451;28;5080;-62
2023/07/18 16:05:23;;;;;;;;;;;;;;;;;;5025363;28;5068;-61
2023/07/18 16:07:48;;;;;;;;;;;;;;;;;;5025737;28;5074;-61
2023/07/18 16:10:14;;;;;;;;;;;;;;;;;;5027484;28;4968;-62
2023/07/18 16:12:39;;;;;;;;;;;;;;;;;;5026109;28;5161;-60
2023/07/18 16:15:05;;;;;;;;;;;;;;;;;;5028113;28;1167;-61
2023/07/18 16:17:30;;;;;;;;;;;;;;;;;;5026438;28;5120;-61
2023/07/18 16:19:56;;;;;;;;;;;;;;;;;;5026083;28;4958;-62
2023/07/18 16:22:22;;;;;;;;;;;;;;;;;;5023135;28;4975;-62
2023/07/18 16:24:47;;;;;;;;;;;;;;;;;;5027180;28;5046;-62
2023/07/18 16:27:12;;;;;;;;;;;;;;;;;;5025287;28;1032;-61
2023/07/18 16:29:39;;;;;;;;;;;;;;;;;;5022035;28;5044;-61
2023/07/18 16:32:05;;;;;;;;;;;;;;;;;;5024556;28;4954;-61
2023/07/18 16:34:30;;;;;;;;;;;;;;;;;;5026619;28;4962;-61
2023/07/18 16:36:55;;;;;;;;;;;;;;;;;;5019566;28;4815;-62
2023/07/18 16:39:20;;;;;;;;;;;;;;;;;;5026171;28;1036;-62
2023/07/18 16:41:46;;;;;;;;;;;;;;;;;;5023308;28;4458;-61
2023/07/18 16:44:11;;;;;;;;;;;;;;;;;;5023827;28;5169;-61
2023/07/18 16:46:37;;;;;;;;;;;;;;;;;;5016597;28;5043;-61
2023/07/18 16:49:03;;;;;;;;;;;;;;;;;;5022306;28;5265;-61
2023/07/18 16:51:29;;;;;;;;;;;;;;;;;;5025679;28;1254;-61